Terminal Aerodrome Forecast
Issued by NWS

Home | Current Version | Previous Version | Text Only | Print | Product List | Glossary On
Versions: 1 2 3 4 5 6 7 8 9 10 11 12 13 14 15 16 17 18 19 20 21 22 23 24 25 26 27 28 29 30 31 32
000
FTUS44 KFWD 250524
TAFDAL
TAF
KDAL 250524Z 2506/2606 16015KT P6SM VCSH SCT025 BKN050
      TEMPO 2506/2508 BKN025
     FM250800 18013KT P6SM OVC010
     FM251700 18016KT P6SM BKN025
     FM252200 16015KT P6SM SCT030 BKN060
     FM260400 17014KT P6SM SCT015 BKN035=

USA.gov is the U.S. government's official web portal to all federal, state and local government web resources and services.